sensor_id;sensor_type;location;lat;lon;timestamp;pressure;altitude;pressure_sealevel;temperature;humidity
10464;BME280;5279;42.048;24.638;2022-11-12T00:01:31;98845.47;;;12.11;100.00
10464;BME280;5279;42.048;24.638;2022-11-12T00:03:58;98844.75;;;12.09;100.00
10464;BME280;5279;42.048;24.638;2022-11-12T00:06:25;98843.28;;;12.04;100.00
10464;BME280;5279;42.048;24.638;2022-11-12T00:08:53;98843.59;;;11.79;100.00
10464;BME280;5279;42.048;24.638;2022-11-12T00:11:20;98834.97;;;11.65;100.00
10464;BME280;5279;42.048;24.638;2022-11-12T00:13:50;98841.38;;;11.62;100.00
10464;BME280;5279;42.048;24.638;2022-11-12T00:16:16;98836.53;;;11.34;100.00
10464;BME280;5279;42.048;24.638;2022-11-12T00:18:43;98838.22;;;11.35;100.00
10464;BME280;5279;42.048;24.638;2022-11-12T00:21:12;98833.66;;;11.48;100.00
10464;BME280;5279;42.048;24.638;2022-11-12T00:23:39;98836.91;;;11.51;100.00
10464;BME280;5279;42.048;24.638;2022-11-12T00:26:08;98838.72;;;11.51;100.00
10464;BME280;5279;42.048;24.638;2022-11-12T00:28:35;98841.47;;;11.49;100.00
10464;BME280;5279;42.048;24.638;2022-11-12T00:31:07;98840.41;;;11.52;100.00
10464;BME280;5279;42.048;24.638;2022-11-12T00:33:37;98847.16;;;11.56;100.00
10464;BME280;5279;42.048;24.638;2022-11-12T00:36:04;98844.53;;;11.67;100.00
10464;BME280;5279;42.048;24.638;2022-11-12T00:38:32;98835.84;;;11.54;100.00
10464;BME280;5279;42.048;24.638;2022-11-12T00:40:59;98854.94;;;11.70;100.00
10464;BME280;5279;42.048;24.638;2022-11-12T00:43:27;98845.00;;;11.50;100.00
10464;BME280;5279;42.048;24.638;2022-11-12T00:45:54;98851.50;;;11.46;100.00
10464;BME280;5279;42.048;24.638;2022-11-12T00:48:21;98840.63;;;11.49;100.00
10464;BME280;5279;42.048;24.638;2022-11-12T00:50:48;98845.13;;;11.48;100.00
10464;BME280;5279;42.048;24.638;2022-11-12T00:53:15;98845.00;;;11.39;100.00
10464;BME280;5279;42.048;24.638;2022-11-12T00:55:42;98827.59;;;11.35;100.00
10464;BME280;5279;42.048;24.638;2022-11-12T00:58:09;98830.03;;;11.27;100.00
10464;BME280;5279;42.048;24.638;2022-11-12T01:00:37;98834.09;;;11.20;100.00
10464;BME280;5279;42.048;24.638;2022-11-12T01:03:04;98841.72;;;11.24;100.00
10464;BME280;5279;42.048;24.638;2022-11-12T01:05:31;98831.69;;;11.28;100.00
10464;BME280;5279;42.048;24.638;2022-11-12T01:07:59;98827.09;;;11.19;100.00
10464;BME280;5279;42.048;24.638;2022-11-12T01:10:26;98834.41;;;10.93;100.00
10464;BME280;5279;42.048;24.638;2022-11-12T01:12:53;98822.88;;;10.70;100.00
10464;BME280;5279;42.048;24.638;2022-11-12T01:15:21;98822.00;;;10.59;100.00
10464;BME280;5279;42.048;24.638;2022-11-12T01:17:49;98827.44;;;10.57;100.00
10464;BME280;5279;42.048;24.638;2022-11-12T01:20:16;98822.84;;;10.59;100.00
10464;BME280;5279;42.048;24.638;2022-11-12T01:22:43;98811.75;;;10.54;100.00
10464;BME280;5279;42.048;24.638;2022-11-12T01:25:17;98810.56;;;10.58;100.00
10464;BME280;5279;42.048;24.638;2022-11-12T01:27:44;98819.78;;;10.76;100.00
10464;BME280;5279;42.048;24.638;2022-11-12T01:30:11;98811.31;;;10.71;100.00
10464;BME280;5279;42.048;24.638;2022-11-12T01:32:38;98808.94;;;10.79;100.00
10464;BME280;5279;42.048;24.638;2022-11-12T01:35:07;98811.56;;;10.68;100.00
10464;BME280;5279;42.048;24.638;2022-11-12T01:37:34;98808.88;;;10.57;100.00
10464;BME280;5279;42.048;24.638;2022-11-12T01:40:08;98814.19;;;10.57;100.00
10464;BME280;5279;42.048;24.638;2022-11-12T01:42:37;98809.75;;;10.69;100.00
10464;BME280;5279;42.048;24.638;2022-11-12T01:45:11;98808.34;;;10.76;100.00
10464;BME280;5279;42.048;24.638;2022-11-12T01:47:41;98802.66;;;10.69;100.00
10464;BME280;5279;42.048;24.638;2022-11-12T01:50:14;98804.94;;;10.74;100.00
10464;BME280;5279;42.048;24.638;2022-11-12T01:52:46;98805.63;;;10.65;100.00
10464;BME280;5279;42.048;24.638;2022-11-12T01:55:17;98802.63;;;10.34;100.00
10464;BME280;5279;42.048;24.638;2022-11-12T01:57:48;98794.47;;;10.37;100.00
10464;BME280;5279;42.048;24.638;2022-11-12T02:00:20;98798.22;;;10.46;100.00
10464;BME280;5279;42.048;24.638;2022-11-12T02:02:55;98800.19;;;10.55;100.00
10464;BME280;5279;42.048;24.638;2022-11-12T02:05:30;98792.97;;;10.57;100.00
10464;BME280;5279;42.048;24.638;2022-11-12T02:07:59;98804.28;;;10.48;100.00
10464;BME280;5279;42.048;24.638;2022-11-12T02:10:37;98787.19;;;10.28;100.00
10464;BME280;5279;42.048;24.638;2022-11-12T02:13:05;98801.47;;;10.38;100.00
10464;BME280;5279;42.048;24.638;2022-11-12T02:15:50;98806.75;;;10.38;100.00
10464;BME280;5279;42.048;24.638;2022-11-12T02:18:17;98807.88;;;10.47;100.00
10464;BME280;5279;42.048;24.638;2022-11-12T02:20:52;98799.44;;;10.42;100.00
10464;BME280;5279;42.048;24.638;2022-11-12T02:23:21;98802.81;;;10.44;100.00
10464;BME280;5279;42.048;24.638;2022-11-12T02:25:48;98804.88;;;10.28;100.00
10464;BME280;5279;42.048;24.638;2022-11-12T02:28:15;98793.88;;;9.98;100.00
10464;BME280;5279;42.048;24.638;2022-11-12T02:30:45;98805.34;;;10.22;100.00
10464;BME280;5279;42.048;24.638;2022-11-12T02:33:20;98795.28;;;10.27;100.00
10464;BME280;5279;42.048;24.638;2022-11-12T02:35:48;98802.63;;;10.34;100.00
10464;BME280;5279;42.048;24.638;2022-11-12T02:38:14;98799.81;;;10.25;100.00
10464;BME280;5279;42.048;24.638;2022-11-12T02:40:43;98807.41;;;10.06;100.00
10464;BME280;5279;42.048;24.638;2022-11-12T02:43:12;98798.16;;;10.24;100.00
10464;BME280;5279;42.048;24.638;2022-11-12T02:45:58;98800.75;;;10.36;100.00
10464;BME280;5279;42.048;24.638;2022-11-12T02:48:24;98803.25;;;10.38;100.00
10464;BME280;5279;42.048;24.638;2022-11-12T02:50:51;98803.56;;;10.10;100.00
10464;BME280;5279;42.048;24.638;2022-11-12T02:53:18;98807.28;;;10.20;100.00
10464;BME280;5279;42.048;24.638;2022-11-12T02:55:47;98798.19;;;10.35;100.00
10464;BME280;5279;42.048;24.638;2022-11-12T02:58:14;98802.09;;;10.42;100.00
10464;BME280;5279;42.048;24.638;2022-11-12T03:00:41;98811.81;;;10.41;100.00
10464;BME280;5279;42.048;24.638;2022-11-12T03:03:08;98809.66;;;10.47;100.00
10464;BME280;5279;42.048;24.638;2022-11-12T03:05:35;98819.34;;;10.59;100.00
10464;BME280;5279;42.048;24.638;2022-11-12T03:08:03;98803.34;;;10.60;100.00
10464;BME280;5279;42.048;24.638;2022-11-12T03:10:31;98819.03;;;10.63;100.00
10464;BME280;5279;42.048;24.638;2022-11-12T03:13:00;98808.41;;;10.63;100.00
10464;BME280;5279;42.048;24.638;2022-11-12T03:15:31;98801.88;;;10.56;100.00
10464;BME280;5279;42.048;24.638;2022-11-12T03:17:58;98813.78;;;10.51;100.00
10464;BME280;5279;42.048;24.638;2022-11-12T03:20:25;98813.41;;;10.44;100.00
10464;BME280;5279;42.048;24.638;2022-11-12T03:22:56;98811.00;;;10.52;100.00
10464;BME280;5279;42.048;24.638;2022-11-12T03:25:24;98808.50;;;10.51;100.00
10464;BME280;5279;42.048;24.638;2022-11-12T03:27:59;98816.06;;;10.44;100.00
10464;BME280;5279;42.048;24.638;2022-11-12T03:30:28;98803.31;;;10.25;100.00
10464;BME280;5279;42.048;24.638;2022-11-12T03:32:56;98807.31;;;10.31;100.00
10464;BME280;5279;42.048;24.638;2022-11-12T03:35:28;98811.66;;;10.32;100.00
10464;BME280;5279;42.048;24.638;2022-11-12T03:37:55;98808.81;;;9.99;100.00
10464;BME280;5279;42.048;24.638;2022-11-12T03:40:22;98810.38;;;10.14;100.00
10464;BME280;5279;42.048;24.638;2022-11-12T03:42:50;98805.66;;;9.94;100.00
10464;BME280;5279;42.048;24.638;2022-11-12T03:45:23;98813.66;;;10.17;100.00
10464;BME280;5279;42.048;24.638;2022-11-12T03:47:52;98814.38;;;10.07;100.00
10464;BME280;5279;42.048;24.638;2022-11-12T03:50:36;98812.06;;;10.15;100.00
10464;BME280;5279;42.048;24.638;2022-11-12T03:53:03;98804.16;;;10.26;100.00
10464;BME280;5279;42.048;24.638;2022-11-12T03:55:30;98804.41;;;10.23;100.00
10464;BME280;5279;42.048;24.638;2022-11-12T03:57:57;98812.16;;;10.37;100.00
10464;BME280;5279;42.048;24.638;2022-11-12T04:00:27;98820.16;;;10.24;100.00
10464;BME280;5279;42.048;24.638;2022-11-12T04:02:56;98811.84;;;10.18;100.00
10464;BME280;5279;42.048;24.638;2022-11-12T04:05:23;98816.91;;;10.21;100.00
10464;BME280;5279;42.048;24.638;2022-11-12T04:08:16;98808.97;;;10.21;100.00
10464;BME280;5279;42.048;24.638;2022-11-12T04:11:01;98810.16;;;10.17;100.00
10464;BME280;5279;42.048;24.638;2022-11-12T04:13:28;98807.13;;;10.21;100.00
10464;BME280;5279;42.048;24.638;2022-11-12T04:15:58;98806.09;;;10.24;100.00
10464;BME280;5279;42.048;24.638;2022-11-12T04:18:44;98807.75;;;10.25;100.00
10464;BME280;5279;42.048;24.638;2022-11-12T04:21:32;98809.31;;;10.04;100.00
10464;BME280;5279;42.048;24.638;2022-11-12T04:24:16;98801.66;;;10.12;100.00
10464;BME280;5279;42.048;24.638;2022-11-12T04:27:05;98808.63;;;10.13;100.00
10464;BME280;5279;42.048;24.638;2022-11-12T04:29:32;98808.97;;;10.21;100.00
10464;BME280;5279;42.048;24.638;2022-11-12T04:32:18;98812.75;;;10.29;100.00
10464;BME280;5279;42.048;24.638;2022-11-12T04:34:45;98796.00;;;10.29;100.00
10464;BME280;5279;42.048;24.638;2022-11-12T04:37:12;98807.38;;;10.18;100.00
10464;BME280;5279;42.048;24.638;2022-11-12T04:39:41;98798.41;;;10.32;100.00
10464;BME280;5279;42.048;24.638;2022-11-12T04:42:09;98791.66;;;10.28;100.00
10464;BME280;5279;42.048;24.638;2022-11-12T04:44:54;98797.63;;;10.43;100.00
10464;BME280;5279;42.048;24.638;2022-11-12T04:47:32;98816.78;;;10.46;100.00
10464;BME280;5279;42.048;24.638;2022-11-12T04:50:01;98802.81;;;10.44;100.00
10464;BME280;5279;42.048;24.638;2022-11-12T04:52:29;98805.94;;;10.49;100.00
10464;BME280;5279;42.048;24.638;2022-11-12T04:54:57;98807.41;;;10.53;100.00
10464;BME280;5279;42.048;24.638;2022-11-12T04:57:24;98812.03;;;10.62;100.00
10464;BME280;5279;42.048;24.638;2022-11-12T04:59:51;98817.09;;;10.65;100.00
10464;BME280;5279;42.048;24.638;2022-11-12T05:02:19;98816.88;;;10.68;100.00
10464;BME280;5279;42.048;24.638;2022-11-12T05:04:50;98820.69;;;10.64;100.00
10464;BME280;5279;42.048;24.638;2022-11-12T05:07:17;98825.53;;;10.70;100.00
10464;BME280;5279;42.048;24.638;2022-11-12T05:09:44;98818.19;;;10.63;100.00
10464;BME280;5279;42.048;24.638;2022-11-12T05:12:11;98828.94;;;10.72;100.00
10464;BME280;5279;42.048;24.638;2022-11-12T05:14:38;98831.88;;;10.57;100.00
10464;BME280;5279;42.048;24.638;2022-11-12T05:17:05;98834.81;;;10.41;100.00
10464;BME280;5279;42.048;24.638;2022-11-12T05:19:32;98837.22;;;10.33;100.00
10464;BME280;5279;42.048;24.638;2022-11-12T05:22:01;98835.50;;;10.32;100.00
10464;BME280;5279;42.048;24.638;2022-11-12T05:24:30;98833.63;;;10.21;100.00
10464;BME280;5279;42.048;24.638;2022-11-12T05:26:57;98836.13;;;10.35;100.00
10464;BME280;5279;42.048;24.638;2022-11-12T05:29:24;98843.28;;;10.46;100.00
10464;BME280;5279;42.048;24.638;2022-11-12T05:31:51;98848.34;;;10.49;100.00
10464;BME280;5279;42.048;24.638;2022-11-12T05:34:18;98840.91;;;10.54;100.00
10464;BME280;5279;42.048;24.638;2022-11-12T05:36:45;98852.19;;;10.45;100.00
10464;BME280;5279;42.048;24.638;2022-11-12T05:39:13;98851.22;;;10.46;100.00
10464;BME280;5279;42.048;24.638;2022-11-12T05:41:40;98855.81;;;10.44;100.00
10464;BME280;5279;42.048;24.638;2022-11-12T05:44:07;98854.28;;;10.53;100.00
10464;BME280;5279;42.048;24.638;2022-11-12T05:46:34;98852.16;;;10.58;100.00
10464;BME280;5279;42.048;24.638;2022-11-12T05:49:01;98857.56;;;10.67;100.00
10464;BME280;5279;42.048;24.638;2022-11-12T05:51:28;98858.78;;;10.63;100.00
10464;BME280;5279;42.048;24.638;2022-11-12T05:53:55;98872.06;;;10.74;100.00
10464;BME280;5279;42.048;24.638;2022-11-12T05:56:23;98865.31;;;10.70;100.00
10464;BME280;5279;42.048;24.638;2022-11-12T05:58:50;98885.56;;;10.71;100.00
10464;BME280;5279;42.048;24.638;2022-11-12T06:01:20;98876.59;;;10.37;100.00
10464;BME280;5279;42.048;24.638;2022-11-12T06:03:47;98881.00;;;10.50;100.00
10464;BME280;5279;42.048;24.638;2022-11-12T06:06:14;98889.34;;;10.56;100.00
10464;BME280;5279;42.048;24.638;2022-11-12T06:08:41;98900.66;;;10.58;100.00
10464;BME280;5279;42.048;24.638;2022-11-12T06:11:08;98884.75;;;10.58;100.00
10464;BME280;5279;42.048;24.638;2022-11-12T06:13:36;98903.16;;;10.72;100.00
10464;BME280;5279;42.048;24.638;2022-11-12T06:16:03;98901.47;;;10.71;100.00
10464;BME280;5279;42.048;24.638;2022-11-12T06:18:30;98915.66;;;10.70;100.00
10464;BME280;5279;42.048;24.638;2022-11-12T06:21:01;98918.84;;;10.75;100.00
10464;BME280;5279;42.048;24.638;2022-11-12T06:23:47;98910.59;;;10.67;100.00
10464;BME280;5279;42.048;24.638;2022-11-12T06:26:18;98929.94;;;10.80;100.00
10464;BME280;5279;42.048;24.638;2022-11-12T06:28:47;98944.69;;;10.84;100.00
10464;BME280;5279;42.048;24.638;2022-11-12T06:31:14;98947.03;;;10.76;100.00
10464;BME280;5279;42.048;24.638;2022-11-12T06:33:43;98948.38;;;10.58;100.00
10464;BME280;5279;42.048;24.638;2022-11-12T06:36:11;98961.41;;;10.25;100.00
10464;BME280;5279;42.048;24.638;2022-11-12T06:38:40;98963.03;;;10.15;100.00
10464;BME280;5279;42.048;24.638;2022-11-12T06:41:08;98963.34;;;9.98;100.00
10464;BME280;5279;42.048;24.638;2022-11-12T06:43:35;98967.16;;;9.94;100.00
10464;BME280;5279;42.048;24.638;2022-11-12T06:46:06;98979.66;;;9.92;100.00
10464;BME280;5279;42.048;24.638;2022-11-12T06:48:33;98972.25;;;9.97;100.00
10464;BME280;5279;42.048;24.638;2022-11-12T06:51:06;98981.22;;;9.94;100.00
10464;BME280;5279;42.048;24.638;2022-11-12T06:53:33;98984.72;;;9.95;100.00
10464;BME280;5279;42.048;24.638;2022-11-12T06:56:01;98991.94;;;9.80;100.00
10464;BME280;5279;42.048;24.638;2022-11-12T06:58:28;98992.59;;;9.83;100.00
10464;BME280;5279;42.048;24.638;2022-11-12T07:00:55;98989.72;;;9.99;100.00
10464;BME280;5279;42.048;24.638;2022-11-12T07:03:23;98985.56;;;10.08;100.00
10464;BME280;5279;42.048;24.638;2022-11-12T07:05:51;98991.00;;;9.94;100.00
10464;BME280;5279;42.048;24.638;2022-11-12T07:08:18;98982.00;;;9.96;100.00
10464;BME280;5279;42.048;24.638;2022-11-12T07:10:45;98980.84;;;9.87;100.00
10464;BME280;5279;42.048;24.638;2022-11-12T07:13:12;98985.50;;;9.97;100.00
10464;BME280;5279;42.048;24.638;2022-11-12T07:15:40;98993.81;;;10.03;100.00
10464;BME280;5279;42.048;24.638;2022-11-12T07:18:07;98977.63;;;9.82;100.00
10464;BME280;5279;42.048;24.638;2022-11-12T07:20:35;98992.78;;;9.80;100.00
10464;BME280;5279;42.048;24.638;2022-11-12T07:23:02;98995.75;;;9.63;100.00
10464;BME280;5279;42.048;24.638;2022-11-12T07:25:29;98989.28;;;9.42;100.00
10464;BME280;5279;42.048;24.638;2022-11-12T07:27:56;98996.53;;;9.26;100.00
10464;BME280;5279;42.048;24.638;2022-11-12T07:30:23;98986.28;;;8.95;100.00
10464;BME280;5279;42.048;24.638;2022-11-12T07:32:50;98992.38;;;8.83;100.00
10464;BME280;5279;42.048;24.638;2022-11-12T07:35:17;98996.34;;;8.75;100.00
10464;BME280;5279;42.048;24.638;2022-11-12T07:37:46;98989.00;;;8.81;100.00
10464;BME280;5279;42.048;24.638;2022-11-12T07:40:13;98995.81;;;8.97;100.00
10464;BME280;5279;42.048;24.638;2022-11-12T07:42:40;99002.19;;;9.07;100.00
10464;BME280;5279;42.048;24.638;2022-11-12T07:45:08;99001.41;;;8.93;100.00
10464;BME280;5279;42.048;24.638;2022-11-12T07:47:35;99009.78;;;8.99;100.00
10464;BME280;5279;42.048;24.638;2022-11-12T07:50:02;99008.75;;;9.02;100.00
10464;BME280;5279;42.048;24.638;2022-11-12T07:52:31;99005.38;;;9.12;100.00
10464;BME280;5279;42.048;24.638;2022-11-12T07:55:00;99003.69;;;9.11;100.00
10464;BME280;5279;42.048;24.638;2022-11-12T07:57:26;99011.84;;;9.08;100.00
10464;BME280;5279;42.048;24.638;2022-11-12T07:59:53;99006.84;;;9.04;100.00
10464;BME280;5279;42.048;24.638;2022-11-12T08:02:20;99004.97;;;9.06;100.00
10464;BME280;5279;42.048;24.638;2022-11-12T08:04:47;99004.00;;;9.07;100.00
10464;BME280;5279;42.048;24.638;2022-11-12T08:07:14;99003.50;;;9.14;100.00
10464;BME280;5279;42.048;24.638;2022-11-12T08:09:41;99006.84;;;9.04;100.00
10464;BME280;5279;42.048;24.638;2022-11-12T08:12:09;99015.78;;;9.28;100.00
10464;BME280;5279;42.048;24.638;2022-11-12T08:14:36;99019.81;;;9.21;100.00
10464;BME280;5279;42.048;24.638;2022-11-12T08:17:03;99006.47;;;9.22;100.00
10464;BME280;5279;42.048;24.638;2022-11-12T08:19:30;99016.41;;;9.19;100.00
10464;BME280;5279;42.048;24.638;2022-11-12T08:21:57;99026.16;;;9.31;100.00
10464;BME280;5279;42.048;24.638;2022-11-12T08:24:24;99007.16;;;9.39;100.00
10464;BME280;5279;42.048;24.638;2022-11-12T08:26:52;99012.03;;;9.45;100.00
10464;BME280;5279;42.048;24.638;2022-11-12T08:29:20;99020.47;;;9.37;100.00
10464;BME280;5279;42.048;24.638;2022-11-12T08:31:48;99015.59;;;9.31;100.00
10464;BME280;5279;42.048;24.638;2022-11-12T08:34:15;99013.00;;;9.17;100.00
10464;BME280;5279;42.048;24.638;2022-11-12T08:36:42;99027.88;;;9.32;100.00
10464;BME280;5279;42.048;24.638;2022-11-12T08:39:09;99023.66;;;9.42;100.00
10464;BME280;5279;42.048;24.638;2022-11-12T08:41:36;99016.47;;;9.44;100.00
10464;BME280;5279;42.048;24.638;2022-11-12T08:44:03;99019.44;;;9.52;100.00
10464;BME280;5279;42.048;24.638;2022-11-12T08:46:32;99019.66;;;9.62;100.00
10464;BME280;5279;42.048;24.638;2022-11-12T08:48:59;99014.50;;;9.85;100.00
10464;BME280;5279;42.048;24.638;2022-11-12T08:51:25;99002.09;;;9.99;100.00
10464;BME280;5279;42.048;24.638;2022-11-12T08:53:52;99010.81;;;10.13;100.00
10464;BME280;5279;42.048;24.638;2022-11-12T08:56:19;99022.25;;;10.39;100.00
10464;BME280;5279;42.048;24.638;2022-11-12T08:58:46;99023.03;;;10.52;100.00
10464;BME280;5279;42.048;24.638;2022-11-12T09:01:13;99019.00;;;10.59;100.00
10464;BME280;5279;42.048;24.638;2022-11-12T09:03:41;99013.69;;;10.59;100.00
10464;BME280;5279;42.048;24.638;2022-11-12T09:06:10;99011.63;;;10.52;100.00
10464;BME280;5279;42.048;24.638;2022-11-12T09:08:37;99018.56;;;10.65;100.00
10464;BME280;5279;42.048;24.638;2022-11-12T09:11:04;99020.06;;;10.57;100.00
10464;BME280;5279;42.048;24.638;2022-11-12T09:13:32;98998.47;;;10.50;100.00
10464;BME280;5279;42.048;24.638;2022-11-12T09:16:01;99012.66;;;10.49;100.00
10464;BME280;5279;42.048;24.638;2022-11-12T09:18:28;99013.47;;;10.62;100.00
10464;BME280;5279;42.048;24.638;2022-11-12T09:21:00;99006.38;;;10.63;100.00
10464;BME280;5279;42.048;24.638;2022-11-12T09:23:28;99004.56;;;10.63;100.00
10464;BME280;5279;42.048;24.638;2022-11-12T09:25:55;99006.84;;;10.80;100.00
10464;BME280;5279;42.048;24.638;2022-11-12T09:28:23;99000.16;;;10.87;100.00
10464;BME280;5279;42.048;24.638;2022-11-12T09:30:51;99011.44;;;11.02;100.00
10464;BME280;5279;42.048;24.638;2022-11-12T09:33:20;99004.50;;;11.12;100.00
10464;BME280;5279;42.048;24.638;2022-11-12T09:35:47;98995.47;;;11.15;100.00
10464;BME280;5279;42.048;24.638;2022-11-12T09:38:16;98996.19;;;11.17;100.00
10464;BME280;5279;42.048;24.638;2022-11-12T09:41:08;98994.25;;;11.19;100.00
10464;BME280;5279;42.048;24.638;2022-11-12T09:43:40;98996.66;;;11.22;100.00
10464;BME280;5279;42.048;24.638;2022-11-12T09:46:19;98990.88;;;11.17;100.00
10464;BME280;5279;42.048;24.638;2022-11-12T09:49:00;98995.97;;;10.96;100.00
10464;BME280;5279;42.048;24.638;2022-11-12T09:51:31;98988.44;;;11.14;100.00
10464;BME280;5279;42.048;24.638;2022-11-12T09:54:03;98990.91;;;11.28;100.00
10464;BME280;5279;42.048;24.638;2022-11-12T09:56:32;98990.44;;;11.34;100.00
10464;BME280;5279;42.048;24.638;2022-11-12T09:58:59;98986.34;;;11.30;100.00
10464;BME280;5279;42.048;24.638;2022-11-12T10:01:38;98979.72;;;11.35;100.00
10464;BME280;5279;42.048;24.638;2022-11-12T10:04:26;98989.28;;;11.49;100.00
10464;BME280;5279;42.048;24.638;2022-11-12T10:07:03;98987.88;;;11.56;100.00
10464;BME280;5279;42.048;24.638;2022-11-12T10:09:46;98986.06;;;11.57;100.00
10464;BME280;5279;42.048;24.638;2022-11-12T10:12:22;98976.66;;;11.64;100.00
10464;BME280;5279;42.048;24.638;2022-11-12T10:18:18;98970.34;;;11.88;100.00
10464;BME280;5279;42.048;24.638;2022-11-12T10:20:54;98986.28;;;11.88;100.00
10464;BME280;5279;42.048;24.638;2022-11-12T10:23:27;98987.00;;;11.56;100.00
10464;BME280;5279;42.048;24.638;2022-11-12T10:25:58;98980.84;;;11.79;98.34
10464;BME280;5279;42.048;24.638;2022-11-12T10:28:28;98981.22;;;11.85;97.59
10464;BME280;5279;42.048;24.638;2022-11-12T10:31:06;98986.75;;;11.82;100.00
10464;BME280;5279;42.048;24.638;2022-11-12T10:33:36;98977.34;;;11.89;100.00
10464;BME280;5279;42.048;24.638;2022-11-12T10:36:27;98967.09;;;11.96;100.00
10464;BME280;5279;42.048;24.638;2022-11-12T10:38:58;98970.59;;;12.07;100.00
10464;BME280;5279;42.048;24.638;2022-11-12T10:41:28;98977.34;;;12.12;100.00
10464;BME280;5279;42.048;24.638;2022-11-12T10:43:58;98975.41;;;12.14;100.00
10464;BME280;5279;42.048;24.638;2022-11-12T10:46:27;98969.41;;;12.00;100.00
10464;BME280;5279;42.048;24.638;2022-11-12T10:49:20;98972.75;;;12.02;100.00
10464;BME280;5279;42.048;24.638;2022-11-12T10:51:54;98971.56;;;12.07;100.00
10464;BME280;5279;42.048;24.638;2022-11-12T10:54:28;98972.28;;;12.20;100.00
10464;BME280;5279;42.048;24.638;2022-11-12T10:57:05;98961.53;;;12.21;100.00
10464;BME280;5279;42.048;24.638;2022-11-12T10:59:44;98970.84;;;12.16;100.00
10464;BME280;5279;42.048;24.638;2022-11-12T11:02:15;98964.19;;;12.21;100.00
10464;BME280;5279;42.048;24.638;2022-11-12T11:04:42;98952.72;;;12.10;100.00
10464;BME280;5279;42.048;24.638;2022-11-12T11:07:19;98973.50;;;12.16;100.00
10464;BME280;5279;42.048;24.638;2022-11-12T11:09:51;98967.22;;;12.28;100.00
10464;BME280;5279;42.048;24.638;2022-11-12T11:12:25;98962.22;;;12.34;100.00
10464;BME280;5279;42.048;24.638;2022-11-12T11:15:19;98975.41;;;12.36;100.00
10464;BME280;5279;42.048;24.638;2022-11-12T11:17:46;98978.78;;;12.38;100.00
10464;BME280;5279;42.048;24.638;2022-11-12T11:20:24;98968.63;;;12.32;100.00
10464;BME280;5279;42.048;24.638;2022-11-12T11:22:55;98972.03;;;12.34;100.00
10464;BME280;5279;42.048;24.638;2022-11-12T11:25:25;98969.59;;;12.42;100.00
10464;BME280;5279;42.048;24.638;2022-11-12T11:28:06;98971.56;;;12.40;100.00
10464;BME280;5279;42.048;24.638;2022-11-12T11:30:37;98961.28;;;12.24;100.00
10464;BME280;5279;42.048;24.638;2022-11-12T11:33:27;98972.53;;;12.28;100.00
10464;BME280;5279;42.048;24.638;2022-11-12T11:36:05;98959.22;;;12.17;100.00
10464;BME280;5279;42.048;24.638;2022-11-12T11:38:43;98957.88;;;12.22;100.00
10464;BME280;5279;42.048;24.638;2022-11-12T11:41:32;98943.03;;;12.20;100.00
10464;BME280;5279;42.048;24.638;2022-11-12T11:44:13;98951.84;;;12.31;100.00
10464;BME280;5279;42.048;24.638;2022-11-12T11:46:53;98947.38;;;12.32;100.00
10464;BME280;5279;42.048;24.638;2022-11-12T11:49:37;98957.31;;;12.19;100.00
10464;BME280;5279;42.048;24.638;2022-11-12T11:52:18;98959.94;;;12.07;100.00
10464;BME280;5279;42.048;24.638;2022-11-12T11:54:57;98951.50;;;12.14;100.00
10464;BME280;5279;42.048;24.638;2022-11-12T11:57:28;98953.94;;;12.05;100.00
10464;BME280;5279;42.048;24.638;2022-11-12T12:00:09;98954.41;;;12.11;100.00
10464;BME280;5279;42.048;24.638;2022-11-12T12:02:49;98946.91;;;12.04;100.00
10464;BME280;5279;42.048;24.638;2022-11-12T12:05:38;98947.06;;;12.03;100.00
10464;BME280;5279;42.048;24.638;2022-11-12T12:08:08;98951.50;;;12.02;100.00
10464;BME280;5279;42.048;24.638;2022-11-12T12:10:50;98944.16;;;12.06;100.00
10464;BME280;5279;42.048;24.638;2022-11-12T12:13:30;98953.22;;;12.03;100.00
10464;BME280;5279;42.048;24.638;2022-11-12T12:16:23;98942.47;;;11.94;100.00
10464;BME280;5279;42.048;24.638;2022-11-12T12:18:57;98935.69;;;11.90;100.00
10464;BME280;5279;42.048;24.638;2022-11-12T12:21:30;98935.31;;;11.83;100.00
10464;BME280;5279;42.048;24.638;2022-11-12T12:24:02;98942.81;;;11.89;100.00
10464;BME280;5279;42.048;24.638;2022-11-12T12:26:34;98934.59;;;11.92;100.00
10464;BME280;5279;42.048;24.638;2022-11-12T12:29:06;98931.47;;;11.98;100.00
10464;BME280;5279;42.048;24.638;2022-11-12T12:31:43;98933.75;;;11.92;100.00
10464;BME280;5279;42.048;24.638;2022-11-12T12:34:18;98939.19;;;12.01;100.00
10464;BME280;5279;42.048;24.638;2022-11-12T12:36:50;98930.00;;;12.05;100.00
10464;BME280;5279;42.048;24.638;2022-11-12T12:39:22;98933.25;;;11.98;100.00
10464;BME280;5279;42.048;24.638;2022-11-12T12:41:55;98948.63;;;11.94;100.00
10464;BME280;5279;42.048;24.638;2022-11-12T12:44:26;98951.78;;;11.65;100.00
10464;BME280;5279;42.048;24.638;2022-11-12T12:47:13;98960.84;;;11.51;100.00
10464;BME280;5279;42.048;24.638;2022-11-12T12:49:40;98953.75;;;11.28;100.00
10464;BME280;5279;42.048;24.638;2022-11-12T12:52:11;98958.81;;;11.31;100.00
10464;BME280;5279;42.048;24.638;2022-11-12T12:54:54;98958.25;;;11.27;100.00
10464;BME280;5279;42.048;24.638;2022-11-12T12:57:28;98952.94;;;11.27;100.00
10464;BME280;5279;42.048;24.638;2022-11-12T13:00:25;98950.84;;;11.20;100.00
10464;BME280;5279;42.048;24.638;2022-11-12T13:02:55;98951.31;;;11.14;100.00
10464;BME280;5279;42.048;24.638;2022-11-12T13:05:24;98940.47;;;11.17;100.00
10464;BME280;5279;42.048;24.638;2022-11-12T13:07:52;98938.03;;;11.14;100.00
10464;BME280;5279;42.048;24.638;2022-11-12T13:10:54;98946.84;;;11.14;100.00
10464;BME280;5279;42.048;24.638;2022-11-12T13:13:27;98950.69;;;11.10;100.00
10464;BME280;5279;42.048;24.638;2022-11-12T13:15:57;98945.59;;;11.07;100.00